createdAt,value
2023-04-28T00:02:08.830Z,11.35
2023-04-28T00:05:13.137Z,12.16
2023-04-28T00:08:24.324Z,12.62
2023-04-28T00:11:28.975Z,12.99
2023-04-28T00:14:36.222Z,13.27
2023-04-28T00:17:45.066Z,12.72
2023-04-28T00:20:50.937Z,12.86
2023-04-28T00:24:00.605Z,12.42
2023-04-28T00:27:10.036Z,11.78
2023-04-28T00:30:14.692Z,11.94
2023-04-28T00:33:21.700Z,11.79
2023-04-28T00:36:26.233Z,12.11
2023-04-28T00:39:34.804Z,12.04
2023-04-28T00:42:43.799Z,12.26
2023-04-28T00:45:49.041Z,12.23
2023-04-28T00:48:54.001Z,12.38
2023-04-28T00:52:06.415Z,11.52
2023-04-28T00:55:23.764Z,12.04
2023-04-28T00:58:33.872Z,12.12
2023-04-28T01:01:58.999Z,12.01
2023-04-28T01:05:05.332Z,11.95
2023-04-28T01:08:10.167Z,11.88
2023-04-28T01:11:19.426Z,11.57
2023-04-28T01:15:32.517Z,11.85
2023-04-28T01:18:37.722Z,11.57
2023-04-28T01:21:47.439Z,11.51
2023-04-28T01:25:01.299Z,11.32
2023-04-28T01:28:07.667Z,11.70
2023-04-28T01:31:21.245Z,11.50
2023-04-28T01:34:31.661Z,11.67
2023-04-28T01:37:50.177Z,12.07
2023-04-28T01:41:13.046Z,11.97
2023-04-28T01:44:40.132Z,11.97
2023-04-28T01:47:46.835Z,11.67
2023-04-28T01:51:05.625Z,12.31
2023-04-28T01:54:30.667Z,12.02
2023-04-28T02:19:43.629Z,13.42
2023-04-28T02:22:58.738Z,13.84
2023-04-28T02:26:12.312Z,14.62
2023-04-28T02:29:17.176Z,15.15
2023-04-28T02:32:25.015Z,15.12
2023-04-28T02:35:53.241Z,15.37
2023-04-28T02:39:09.747Z,15.09
2023-04-28T02:42:21.070Z,15.32
2023-04-28T02:45:28.047Z,15.78
2023-04-28T02:48:39.961Z,15.77
2023-04-28T02:51:45.175Z,15.42
2023-04-28T02:54:51.156Z,15.74
2023-04-28T02:58:01.493Z,15.97
2023-04-28T03:01:18.312Z,15.95
2023-04-28T03:04:25.112Z,16.79
2023-04-28T03:07:29.715Z,16.95
2023-04-28T03:10:34.450Z,16.99
2023-04-28T03:13:47.775Z,16.76
2023-04-28T03:16:52.319Z,17.09
2023-04-28T03:19:57.450Z,17.55
2023-04-28T03:23:03.478Z,17.75
2023-04-28T03:26:07.928Z,17.15
2023-04-28T03:29:12.693Z,16.95
2023-04-28T03:32:20.004Z,17.00
2023-04-28T03:35:30.343Z,16.51
2023-04-28T03:38:35.041Z,16.97
2023-04-28T03:41:45.759Z,16.76
2023-04-28T03:45:09.341Z,16.73
2023-04-28T03:48:16.870Z,17.02
2023-04-28T03:51:21.604Z,17.42
2023-04-28T03:54:28.412Z,17.10
2023-04-28T03:57:42.520Z,17.24
2023-04-28T04:00:47.235Z,16.59
2023-04-28T04:07:35.933Z,17.05
2023-04-28T04:10:47.009Z,16.98
2023-04-28T04:13:54.613Z,17.11
2023-04-28T04:17:01.513Z,17.33
2023-04-28T04:20:09.363Z,17.13
2023-04-28T04:23:13.784Z,16.45
2023-04-28T04:26:26.213Z,16.81
2023-04-28T04:29:34.104Z,17.16
2023-04-28T04:32:46.367Z,17.05
2023-04-28T04:35:51.743Z,17.11
2023-04-28T04:38:56.248Z,16.68
2023-04-28T04:42:07.264Z,17.29
2023-04-28T04:45:24.444Z,16.40
2023-04-28T04:48:28.980Z,16.87
2023-04-28T04:51:36.089Z,16.79
2023-04-28T04:54:43.683Z,17.21
2023-04-28T04:57:50.558Z,17.06
2023-04-28T05:01:18.077Z,17.12
2023-04-28T05:04:23.113Z,16.99
2023-04-28T05:07:28.762Z,17.06
2023-04-28T05:10:33.817Z,17.07
2023-04-28T05:13:43.494Z,17.01
2023-04-28T05:16:49.667Z,17.06
2023-04-28T05:20:07.906Z,16.91
2023-04-28T05:23:12.204Z,17.12
2023-04-28T05:26:17.603Z,16.97
2023-04-28T05:29:22.929Z,17.33
2023-04-28T05:32:30.771Z,17.39
2023-04-28T05:35:35.306Z,17.24
2023-04-28T05:38:42.103Z,17.12
2023-04-28T05:41:46.274Z,17.09
2023-04-28T05:44:50.932Z,17.08
2023-04-28T05:47:58.503Z,16.98
2023-04-28T05:51:03.307Z,16.57
2023-04-28T05:54:08.213Z,16.55
2023-04-28T05:57:19.254Z,16.69
2023-04-28T06:00:23.897Z,16.74
2023-04-28T06:06:38.723Z,16.63
2023-04-28T06:18:51.983Z,17.12
2023-04-28T06:21:58.874Z,16.86
2023-04-28T06:25:03.489Z,16.97
2023-04-28T06:28:17.050Z,17.35
2023-04-28T06:31:24.879Z,17.17
2023-04-28T06:34:32.005Z,17.16
2023-04-28T06:37:36.882Z,17.31
2023-04-28T06:40:41.858Z,17.07
2023-04-28T06:43:46.659Z,17.23
2023-04-28T06:47:07.228Z,16.82
2023-04-28T06:50:12.986Z,17.05
2023-04-28T06:53:17.602Z,17.12
2023-04-28T06:56:23.905Z,17.33
2023-04-28T06:59:28.435Z,17.09
2023-04-28T07:02:32.986Z,16.53
2023-04-28T07:05:40.555Z,16.91
2023-04-28T07:08:45.700Z,16.95
2023-04-28T07:12:00.542Z,16.22
2023-04-28T07:15:05.755Z,16.68
2023-04-28T07:18:11.278Z,16.42
2023-04-28T07:21:18.404Z,16.56
2023-04-28T07:24:24.405Z,16.60
2023-04-28T07:27:29.281Z,16.41
2023-04-28T07:30:35.158Z,16.23
2023-04-28T07:33:39.355Z,16.03
2023-04-28T07:36:44.091Z,15.99
2023-04-28T07:39:48.471Z,16.03
2023-04-28T07:42:53.084Z,15.80
2023-04-28T07:46:00.126Z,15.57
2023-04-28T07:49:05.778Z,15.44
2023-04-28T07:52:11.084Z,15.46
2023-04-28T07:55:17.398Z,15.15
2023-04-28T07:58:24.217Z,15.25
2023-04-28T08:01:28.809Z,15.31
2023-04-28T08:04:41.701Z,15.37
2023-04-28T08:07:46.412Z,15.09
2023-04-28T08:10:51.573Z,14.70
2023-04-28T08:13:58.773Z,14.80
2023-04-28T08:17:45.407Z,14.12
2023-04-28T08:20:49.840Z,14.21
2023-04-28T08:23:55.481Z,14.10
2023-04-28T08:26:59.172Z,13.92
2023-04-28T08:30:03.657Z,13.85
2023-04-28T08:33:08.963Z,13.73
2023-04-28T08:36:18.699Z,13.82
2023-04-28T08:39:24.607Z,13.83
2023-04-28T08:42:32.121Z,13.64
2023-04-28T08:45:43.967Z,13.67
2023-04-28T08:48:51.481Z,13.75
2023-04-28T08:52:02.003Z,13.91
2023-04-28T08:55:15.338Z,13.50
2023-04-28T08:58:21.233Z,13.48
2023-04-28T09:01:26.001Z,13.23
2023-04-28T09:04:30.972Z,13.50
2023-04-28T09:07:35.249Z,13.69
2023-04-28T09:10:41.926Z,13.84
2023-04-28T09:13:45.963Z,13.70
2023-04-28T09:16:52.506Z,13.74
2023-04-28T09:20:05.181Z,13.15
2023-04-28T09:23:18.470Z,13.66
2023-04-28T09:26:24.093Z,13.52
2023-04-28T09:29:27.937Z,13.24
2023-04-28T09:32:34.697Z,13.38
2023-04-28T09:35:44.434Z,13.27
2023-04-28T09:38:49.080Z,13.17
2023-04-28T09:41:56.066Z,13.13
2023-04-28T09:45:00.662Z,12.76
2023-04-28T09:48:12.014Z,12.69
2023-04-28T09:51:22.558Z,12.70
2023-04-28T09:54:35.082Z,12.58
2023-04-28T09:57:41.498Z,12.46
2023-04-28T10:00:53.507Z,12.30
2023-04-28T10:03:59.198Z,12.29
2023-04-28T10:07:09.106Z,12.26
2023-04-28T10:10:15.563Z,12.05
2023-04-28T10:13:21.033Z,11.94
2023-04-28T10:16:28.373Z,12.02
2023-04-28T10:19:32.360Z,11.95
2023-04-28T10:23:22.391Z,11.69
2023-04-28T10:26:37.876Z,11.56
2023-04-28T10:29:45.380Z,11.56
2023-04-28T10:33:12.754Z,11.61
2023-04-28T10:36:50.256Z,11.64
2023-04-28T10:40:33.935Z,11.62
2023-04-28T10:43:40.752Z,11.60
2023-04-28T10:47:11.019Z,11.59
2023-04-28T10:50:15.974Z,11.38
2023-04-28T10:53:20.024Z,11.47
2023-04-28T10:56:28.871Z,11.47
2023-04-28T10:59:35.601Z,11.36
2023-04-28T11:02:44.510Z,11.30
2023-04-28T11:06:36.349Z,11.28
2023-04-28T11:09:42.749Z,11.19
2023-04-28T11:13:25.247Z,10.89
2023-04-28T11:16:29.778Z,10.76
2023-04-28T11:19:37.360Z,10.65
2023-04-28T11:22:42.545Z,10.65
2023-04-28T11:25:59.220Z,10.38
2023-04-28T11:29:03.786Z,10.48
2023-04-28T11:32:11.721Z,10.48
2023-04-28T11:35:16.337Z,10.51
2023-04-28T11:38:21.117Z,10.49
2023-04-28T11:41:25.764Z,10.38
2023-04-28T11:44:33.835Z,10.43
2023-04-28T11:47:40.727Z,10.16
2023-04-28T11:50:46.237Z,10.15
2023-04-28T11:53:52.281Z,10.10
2023-04-28T11:56:59.486Z,10.13
2023-04-28T12:00:21.278Z,10.12
2023-04-28T12:03:26.168Z,10.03
2023-04-28T12:06:30.845Z,10.22
2023-04-28T12:09:36.728Z,10.45
2023-04-28T12:12:50.883Z,10.22
2023-04-28T12:16:02.170Z,10.02
2023-04-28T12:19:10.780Z,9.77
2023-04-28T12:22:18.252Z,9.87
2023-04-28T12:25:26.864Z,9.72
2023-04-28T12:28:41.314Z,9.49
2023-04-28T12:31:53.644Z,9.49
2023-04-28T12:34:58.869Z,9.61
2023-04-28T12:38:03.005Z,9.47
2023-04-28T12:41:07.070Z,9.29
2023-04-28T12:44:13.290Z,9.44
2023-04-28T12:47:21.325Z,9.16
2023-04-28T12:50:27.895Z,9.34
2023-04-28T12:53:32.153Z,9.20
2023-04-28T12:56:36.758Z,9.50
2023-04-28T12:59:41.605Z,9.35
2023-04-28T13:02:46.308Z,9.29
2023-04-28T13:05:50.833Z,9.25
2023-04-28T13:08:55.941Z,9.20
2023-04-28T13:12:00.584Z,9.09
2023-04-28T13:15:05.399Z,9.26
2023-04-28T13:18:11.244Z,9.38
2023-04-28T13:21:18.246Z,9.18
2023-04-28T13:24:22.782Z,9.21
2023-04-28T13:27:27.611Z,8.88
2023-04-28T13:30:31.718Z,8.96
2023-04-28T13:33:36.173Z,9.07
2023-04-28T13:36:40.872Z,8.94
2023-04-28T13:39:47.635Z,8.68
2023-04-28T13:42:57.620Z,8.92
2023-04-28T13:46:02.337Z,8.79
2023-04-28T13:49:06.849Z,8.74
2023-04-28T13:52:11.516Z,8.99
2023-04-28T13:55:19.528Z,9.02
2023-04-28T13:58:28.512Z,8.47
2023-04-28T14:01:35.123Z,8.65
2023-04-28T14:04:42.608Z,8.42
2023-04-28T14:07:47.422Z,8.67
2023-04-28T14:10:52.965Z,8.87
2023-04-28T14:13:58.952Z,8.23
2023-04-28T14:17:04.684Z,8.43
2023-04-28T14:20:12.471Z,8.05
2023-04-28T14:23:17.528Z,8.16
2023-04-28T14:26:22.047Z,8.19
2023-04-28T14:29:26.572Z,8.31
2023-04-28T14:32:40.441Z,8.34
2023-04-28T14:35:53.511Z,8.60
2023-04-28T14:38:59.231Z,8.34
2023-04-28T14:42:07.053Z,8.17
2023-04-28T14:45:12.687Z,8.58
2023-04-28T14:48:17.088Z,8.50
2023-04-28T14:51:22.689Z,8.45
2023-04-28T14:54:27.901Z,8.17
2023-04-28T14:57:32.714Z,8.31
2023-04-28T15:00:37.942Z,8.50
2023-04-28T15:03:42.727Z,8.21
2023-04-28T15:06:47.350Z,8.49
2023-04-28T15:09:52.334Z,8.24
2023-04-28T15:12:56.552Z,8.10
2023-04-28T15:16:03.541Z,7.90
2023-04-28T15:19:08.181Z,8.18
2023-04-28T15:22:12.346Z,8.01
2023-04-28T15:25:17.382Z,7.85
2023-04-28T15:28:22.943Z,8.35
2023-04-28T15:31:26.837Z,8.20
2023-04-28T15:34:31.286Z,8.24
2023-04-28T15:37:38.728Z,8.29
2023-04-28T15:40:44.351Z,7.93
2023-04-28T15:43:51.271Z,7.92
2023-04-28T15:46:56.810Z,8.07
2023-04-28T15:50:01.074Z,8.32
2023-04-28T15:53:07.997Z,8.38
2023-04-28T15:56:12.508Z,8.22
2023-04-28T15:59:19.313Z,7.92
2023-04-28T16:02:28.060Z,7.72
2023-04-28T16:05:32.793Z,7.73
2023-04-28T16:08:37.439Z,7.90
2023-04-28T16:11:42.227Z,7.52
2023-04-28T16:14:49.352Z,7.44
2023-04-28T16:17:54.343Z,7.73
2023-04-28T16:21:00.238Z,7.42
2023-04-28T16:24:09.983Z,7.41
2023-04-28T16:27:14.995Z,7.72
2023-04-28T16:30:21.010Z,7.63
2023-04-28T16:33:25.361Z,7.89
2023-04-28T16:36:33.653Z,7.60
2023-04-28T16:39:38.528Z,7.59
2023-04-28T16:42:44.259Z,7.75
2023-04-28T16:45:51.041Z,7.73
2023-04-28T16:48:55.621Z,7.69
2023-04-28T16:52:11.098Z,7.79
2023-04-28T16:55:20.038Z,7.78
2023-04-28T16:58:25.272Z,7.76
2023-04-28T17:01:30.626Z,7.53
2023-04-28T17:04:36.326Z,7.52
2023-04-28T17:07:41.112Z,7.22
2023-04-28T17:10:47.700Z,7.06
2023-04-28T17:13:52.019Z,6.99
2023-04-28T17:16:57.352Z,7.16
2023-04-28T17:20:03.212Z,7.00
2023-04-28T17:23:08.050Z,7.12
2023-04-28T17:26:12.418Z,6.97
2023-04-28T17:29:17.158Z,6.89
2023-04-28T17:32:21.369Z,7.08
2023-04-28T17:35:26.722Z,7.23
2023-04-28T17:38:31.843Z,7.27
2023-04-28T17:41:39.163Z,7.46
2023-04-28T17:44:43.251Z,7.02
2023-04-28T17:47:47.928Z,6.61
2023-04-28T17:50:53.257Z,6.83
2023-04-28T17:53:57.862Z,6.99
2023-04-28T17:57:04.031Z,6.87
2023-04-28T18:00:12.941Z,6.83
2023-04-28T18:03:17.893Z,6.55
2023-04-28T18:06:23.253Z,6.52
2023-04-28T18:09:27.994Z,6.83
2023-04-28T18:12:32.547Z,6.86
2023-04-28T18:15:38.121Z,6.79
2023-04-28T18:18:45.704Z,7.17
2023-04-28T18:21:50.052Z,7.34
2023-04-28T18:24:54.721Z,7.05
2023-04-28T18:28:02.227Z,6.87
2023-04-28T18:31:07.049Z,6.91
2023-04-28T18:34:11.867Z,6.64
2023-04-28T18:37:15.952Z,6.44
2023-04-28T18:40:20.799Z,6.35
2023-04-28T18:43:28.803Z,6.37
2023-04-28T18:46:33.489Z,6.66
2023-04-28T18:49:38.986Z,6.76
2023-04-28T18:52:43.042Z,6.36
2023-04-28T18:55:47.534Z,6.49
2023-04-28T18:58:51.753Z,6.58
2023-04-28T19:01:55.807Z,6.45
2023-04-28T19:05:01.639Z,6.61
2023-04-28T19:08:10.871Z,6.31
2023-04-28T19:11:16.524Z,6.32
2023-04-28T19:14:21.303Z,6.54
2023-04-28T19:17:28.396Z,6.80
2023-04-28T19:20:32.608Z,6.46
2023-04-28T19:23:36.897Z,6.41
2023-04-28T19:26:41.488Z,6.42
2023-04-28T19:29:49.231Z,6.75
2023-04-28T19:32:53.715Z,6.76
2023-04-28T19:35:58.049Z,6.30
2023-04-28T19:39:01.942Z,6.24
2023-04-28T19:42:06.548Z,6.36
2023-04-28T19:45:11.623Z,6.37
2023-04-28T19:48:16.112Z,6.43
2023-04-28T19:51:23.188Z,6.72
2023-04-28T19:54:28.478Z,6.58
2023-04-28T19:57:35.406Z,6.48
2023-04-28T20:00:40.181Z,6.59
2023-04-28T20:03:47.758Z,6.42
2023-04-28T20:06:53.517Z,6.58
2023-04-28T20:09:58.853Z,6.42
2023-04-28T20:13:02.945Z,6.47
2023-04-28T20:16:08.064Z,6.69
2023-04-28T20:19:15.249Z,6.81
2023-04-28T20:22:19.716Z,6.89
2023-04-28T20:25:24.261Z,6.47
2023-04-28T20:28:31.427Z,6.40
2023-04-28T20:31:36.597Z,6.37
2023-04-28T20:34:43.459Z,6.30
2023-04-28T20:37:47.590Z,6.57
2023-04-28T20:40:54.439Z,6.84
2023-04-28T20:43:58.571Z,6.70
2023-04-28T20:47:02.796Z,6.62
2023-04-28T20:50:21.926Z,5.78
2023-04-28T20:59:11.854Z,5.81
2023-04-28T21:02:13.772Z,6.27
2023-04-28T21:05:18.420Z,6.34
2023-04-28T21:08:27.821Z,6.20
2023-04-28T21:11:32.365Z,6.28
2023-04-28T21:14:37.501Z,6.41
2023-04-28T21:17:45.695Z,6.71
2023-04-28T21:20:51.852Z,7.15
2023-04-28T21:23:56.481Z,7.79
2023-04-28T21:27:01.700Z,8.40
2023-04-28T21:30:06.809Z,9.21
2023-04-28T21:33:12.101Z,9.22
2023-04-28T21:36:18.816Z,9.59
2023-04-28T21:39:23.365Z,10.15
2023-04-28T21:42:34.987Z,11.50
2023-04-28T21:45:39.440Z,11.18
2023-04-28T21:48:51.209Z,11.88
2023-04-28T21:51:59.007Z,13.09
2023-04-28T21:55:50.121Z,13.46
2023-04-28T21:59:00.075Z,13.28
2023-04-28T22:02:04.604Z,14.71
2023-04-28T22:05:13.433Z,15.18
2023-04-28T22:08:22.159Z,16.04
2023-04-28T22:11:30.163Z,16.23
2023-04-28T22:14:40.937Z,16.72
2023-04-28T22:17:46.350Z,17.91
2023-04-28T22:20:50.939Z,18.47
2023-04-28T22:23:55.354Z,18.30
2023-04-28T22:27:12.012Z,18.20
2023-04-28T22:30:16.767Z,19.10
2023-04-28T22:33:24.038Z,19.85
2023-04-28T22:36:30.689Z,19.42
2023-04-28T22:39:37.496Z,18.68
2023-04-28T22:42:47.962Z,19.76
2023-04-28T22:45:57.422Z,19.80
2023-04-28T22:49:02.217Z,19.79
2023-04-28T22:52:11.455Z,20.16
2023-04-28T22:55:15.714Z,19.98
2023-04-28T22:58:49.153Z,19.35
2023-04-28T23:02:23.341Z,19.26
2023-04-28T23:05:32.604Z,18.07
2023-04-28T23:08:53.834Z,18.25
2023-04-28T23:12:07.440Z,18.11
2023-04-28T23:15:15.097Z,17.79
2023-04-28T23:18:30.896Z,18.11
2023-04-28T23:21:48.999Z,17.65
2023-04-28T23:25:03.778Z,18.12
2023-04-28T23:28:14.875Z,18.44
2023-04-28T23:31:21.470Z,17.52
2023-04-28T23:34:36.999Z,17.47
2023-04-28T23:37:43.339Z,17.85
2023-04-28T23:40:52.388Z,18.37
2023-04-28T23:43:59.682Z,18.84
2023-04-28T23:47:04.461Z,19.19
2023-04-28T23:50:12.850Z,19.30
2023-04-28T23:53:19.797Z,20.46
2023-04-28T23:56:43.860Z,20.92
